createdAt,value
2019-03-30T17:43:54.342Z,16.50
2019-03-30T17:46:21.003Z,15.94
2019-03-30T17:48:47.581Z,15.49
2019-03-30T17:51:14.054Z,15.09
2019-03-30T17:53:40.824Z,14.82
2019-03-30T17:56:07.524Z,14.70
2019-03-30T17:58:33.961Z,14.55
2019-03-30T18:01:00.491Z,14.47
2019-03-30T18:03:27.123Z,14.38
2019-03-30T18:05:53.671Z,14.24
2019-03-30T18:08:20.202Z,14.20
2019-03-30T18:10:46.775Z,14.21
2019-03-30T18:13:13.225Z,14.09
2019-03-30T18:15:39.726Z,13.98
2019-03-30T18:18:06.411Z,13.90
2019-03-30T18:20:32.883Z,13.69
2019-03-30T18:22:59.285Z,13.51
2019-03-30T18:25:25.758Z,13.42
2019-03-30T18:27:52.239Z,13.42
2019-03-30T18:30:23.002Z,13.44
2019-03-30T18:32:49.422Z,13.40
2019-03-30T18:35:15.975Z,13.18
2019-03-30T18:37:42.542Z,12.92
2019-03-30T18:40:10.921Z,12.90
2019-03-30T18:42:37.337Z,12.80
2019-03-30T18:45:04.693Z,12.73
2019-03-30T18:47:31.497Z,12.55
2019-03-30T18:49:58.221Z,12.42
2019-03-30T18:52:24.767Z,12.24
2019-03-30T18:54:51.403Z,12.04
2019-03-30T18:57:17.998Z,11.90
2019-03-30T18:59:44.434Z,11.76
2019-03-30T19:02:10.990Z,11.63
2019-03-30T19:04:37.431Z,11.54
2019-03-30T19:07:03.838Z,11.43
2019-03-30T19:09:30.250Z,11.34
2019-03-30T19:11:56.910Z,11.31
2019-03-30T19:14:23.417Z,11.20
2019-03-30T19:16:49.834Z,11.08
2019-03-30T19:19:16.356Z,10.99
2019-03-30T19:21:42.941Z,10.90
2019-03-30T19:24:09.346Z,10.80
2019-03-30T19:26:35.906Z,10.67
2019-03-30T19:29:02.442Z,10.68
2019-03-30T19:31:28.858Z,10.59
2019-03-30T19:33:55.279Z,10.55
2019-03-30T19:36:21.699Z,10.38
2019-03-30T19:38:48.203Z,10.29
2019-03-30T19:41:14.675Z,10.20
2019-03-30T19:43:41.103Z,10.11
2019-03-30T19:46:07.627Z,10.03
2019-03-30T19:48:36.807Z,9.94
2019-03-30T19:51:02.386Z,9.85
2019-03-30T19:53:28.940Z,9.77
2019-03-30T19:55:55.358Z,9.74
2019-03-30T19:58:21.858Z,9.67
2019-03-30T20:00:48.398Z,9.61
2019-03-30T20:03:14.959Z,9.54
2019-03-30T20:05:44.520Z,9.49
2019-03-30T20:08:12.246Z,9.40
2019-03-30T20:10:38.145Z,9.30
2019-03-30T20:13:04.616Z,9.23
2019-03-30T20:15:31.135Z,9.14
2019-03-30T20:17:57.842Z,9.08
2019-03-30T20:20:24.375Z,9.05
2019-03-30T20:22:50.907Z,9.04
2019-03-30T20:25:17.427Z,9.06
2019-03-30T20:27:44.099Z,9.01
2019-03-30T20:30:10.618Z,8.94
2019-03-30T20:32:37.101Z,8.85
2019-03-30T20:35:04.114Z,8.81
2019-03-30T20:37:30.628Z,8.84
2019-03-30T20:39:57.058Z,8.71
2019-03-30T20:42:23.496Z,8.58
2019-03-30T20:44:50.091Z,8.52
2019-03-30T20:47:16.687Z,8.48
2019-03-30T20:49:43.434Z,8.40
2019-03-30T20:52:09.977Z,8.32
2019-03-30T20:54:36.678Z,8.29
2019-03-30T20:57:03.274Z,8.23
2019-03-30T20:59:39.966Z,8.17
2019-03-30T21:01:58.689Z,8.12
2019-03-30T21:04:25.242Z,8.04
2019-03-30T21:06:52.016Z,8.00
2019-03-30T21:09:18.645Z,8.03
2019-03-30T21:11:45.272Z,7.99
2019-03-30T21:14:11.701Z,7.95
2019-03-30T21:16:38.414Z,7.94
2019-03-30T21:19:04.925Z,7.88
2019-03-30T21:21:31.636Z,7.80
2019-03-30T21:24:32.530Z,7.74
2019-03-30T21:26:59.115Z,7.73
2019-03-30T21:29:25.639Z,7.69
2019-03-30T21:31:52.193Z,7.62
2019-03-30T21:34:19.755Z,7.52
2019-03-30T21:36:46.369Z,7.47
2019-03-30T21:39:12.945Z,7.45
2019-03-30T21:41:39.502Z,7.42
2019-03-30T21:44:21.101Z,7.36
2019-03-30T21:46:35.561Z,7.31
2019-03-30T21:49:02.196Z,7.26
2019-03-30T21:51:28.878Z,7.25
2019-03-30T21:53:55.489Z,7.23
2019-03-30T21:56:22.233Z,7.13
2019-03-30T21:58:48.793Z,7.06
2019-03-30T22:01:15.582Z,6.99
2019-03-30T22:03:42.051Z,6.94
2019-03-30T22:06:08.619Z,6.92
2019-03-30T22:08:35.149Z,6.86
2019-03-30T22:11:01.818Z,6.80
2019-03-30T22:13:28.325Z,6.78
2019-03-30T22:15:54.809Z,6.72
2019-03-30T22:18:21.418Z,6.68
2019-03-30T22:20:48.828Z,6.64
2019-03-30T22:23:17.081Z,7.67
2019-03-30T22:25:44.421Z,7.88
2019-03-30T22:28:12.706Z,7.83
2019-03-30T22:30:40.054Z,7.63
2019-03-30T22:33:07.350Z,7.43
2019-03-30T22:35:34.571Z,7.24
2019-03-30T22:38:01.791Z,7.07
2019-03-30T22:40:29.166Z,6.95
2019-03-30T22:42:56.422Z,6.84
2019-03-30T22:45:23.714Z,6.77
2019-03-30T22:47:50.987Z,6.72
2019-03-30T22:50:18.208Z,6.68
2019-03-30T22:52:45.485Z,6.60
2019-03-30T22:55:12.885Z,6.52
2019-03-30T22:57:40.113Z,6.42
2019-03-30T23:00:08.997Z,6.36
2019-03-30T23:02:36.302Z,6.29
2019-03-30T23:05:03.801Z,6.23
2019-03-30T23:07:30.929Z,6.15
2019-03-30T23:09:58.042Z,6.08
2019-03-30T23:12:25.230Z,6.02
2019-03-30T23:14:52.417Z,5.97
2019-03-30T23:17:19.688Z,5.90
2019-03-30T23:19:46.887Z,5.85
2019-03-30T23:22:15.230Z,5.80
2019-03-30T23:24:42.566Z,5.75
2019-03-30T23:27:09.796Z,5.70
2019-03-30T23:29:37.011Z,5.67
2019-03-30T23:32:04.318Z,5.65
2019-03-30T23:34:31.518Z,5.62
2019-03-30T23:36:58.700Z,5.57
2019-03-30T23:39:25.891Z,5.53
2019-03-30T23:41:53.107Z,5.50
2019-03-30T23:44:20.308Z,5.44
2019-03-30T23:46:47.647Z,5.41
2019-03-30T23:49:14.854Z,5.36
2019-03-30T23:51:42.056Z,5.32
2019-03-30T23:54:10.982Z,5.28
2019-03-30T23:56:38.196Z,5.27
2019-03-30T23:59:05.353Z,5.26
